Time;durP1;ratioP1;P1;durP2;ratioP2;P2;SDS_P1;SDS_P2;PMS_P1;PMS_P2;Temp;Humidity;BMP_temperature;BMP_pressure;BME280_temperature;BME280_humidity;BME280_pressure;Samples;Min_cycle;Max_cycle;Signal;HPM_P1;HPM_P2
2023/05/18 00:01:11;;;;;;;4.80;4.37;;;7.80;99.90;;;;;;5041738;28;20550;-79
2023/05/18 00:03:38;;;;;;;6.43;5.10;;;7.80;99.90;;;;;;5038087;28;20446;-80
2023/05/18 00:06:07;;;;;;;4.70;4.30;;;7.80;99.90;;;;;;5047697;28;20449;-80
2023/05/18 00:08:34;;;;;;;6.10;5.53;;;7.70;99.90;;;;;;5043102;28;20462;-79
2023/05/18 00:11:03;;;;;;;7.90;5.13;;;7.60;99.90;;;;;;5047625;28;21025;-77
2023/05/18 00:13:30;;;;;;;7.73;5.03;;;7.60;99.90;;;;;;5046420;28;20480;-77
2023/05/18 00:15:57;;;;;;;8.57;5.13;;;7.60;99.90;;;;;;5042137;28;20511;-77
2023/05/18 00:18:26;;;;;;;6.30;4.63;;;7.60;99.90;;;;;;5041819;28;20499;-78
2023/05/18 00:20:57;;;;;;;5.83;4.10;;;7.70;99.90;;;;;;5044851;28;20453;-79
2023/05/18 00:23:28;;;;;;;7.33;4.60;;;7.60;99.90;;;;;;5040812;28;20798;-80
2023/05/18 00:25:57;;;;;;;5.03;4.33;;;7.70;99.90;;;;;;5035686;28;20464;-77
2023/05/18 00:28:24;;;;;;;7.20;6.50;;;7.70;99.90;;;;;;5038777;28;20524;-78
2023/05/18 00:30:51;;;;;;;7.73;4.87;;;7.60;99.90;;;;;;5039038;28;20928;-79
2023/05/18 00:33:18;;;;;;;4.70;4.20;;;7.60;99.90;;;;;;5042957;28;20437;-78
2023/05/18 00:35:45;;;;;;;7.13;4.20;;;7.60;99.90;;;;;;5040148;28;20434;-78
2023/05/18 00:38:14;;;;;;;6.10;5.00;;;7.50;99.90;;;;;;5039680;28;20441;-78
2023/05/18 00:40:42;;;;;;;8.70;5.03;;;7.60;99.90;;;;;;5046758;28;20461;-80
2023/05/18 00:43:10;;;;;;;4.57;4.17;;;7.70;99.90;;;;;;5035372;28;20449;-78
2023/05/18 00:45:37;;;;;;;5.57;4.00;;;7.70;99.90;;;;;;5043661;28;20464;-81
2023/05/18 00:48:04;;;;;;;5.30;4.80;;;7.80;99.90;;;;;;5042010;28;20538;-79
2023/05/18 00:50:31;;;;;;;7.43;5.23;;;7.70;99.90;;;;;;5044669;28;20476;-78
2023/05/18 00:52:58;;;;;;;5.70;5.10;;;7.60;99.90;;;;;;5045071;28;20472;-78
2023/05/18 00:55:27;;;;;;;4.70;4.03;;;7.60;99.90;;;;;;5040544;28;20486;-79
2023/05/18 00:57:56;;;;;;;6.90;6.10;;;7.60;99.90;;;;;;5040683;28;20473;-78
2023/05/18 01:00:23;;;;;;;5.93;5.43;;;7.60;99.90;;;;;;5043579;28;20455;-80
2023/05/18 01:02:51;;;;;;;5.63;4.50;;;7.70;99.90;;;;;;5031970;28;20461;-79
2023/05/18 01:05:18;;;;;;;5.67;5.00;;;7.70;99.90;;;;;;5043969;28;20441;-77
2023/05/18 01:07:46;;;;;;;10.90;5.50;;;7.60;99.90;;;;;;5041879;28;20457;-79
2023/05/18 01:10:15;;;;;;;5.27;4.80;;;7.60;99.90;;;;;;5034336;28;20466;-80
2023/05/18 01:12:48;;;;;;;6.13;5.63;;;7.70;99.90;;;;;;5040057;28;20445;-77
2023/05/18 01:15:19;;;;;;;6.17;5.40;;;7.70;99.90;;;;;;5039397;28;20883;-79
2023/05/18 01:18:13;;;;;;;4.73;4.33;;;7.70;99.90;;;;;;5045396;28;20468;-77
2023/05/18 01:20:46;;;;;;;6.17;5.43;;;7.60;99.90;;;;;;5039909;28;20460;-77
2023/05/18 01:23:45;;;;;;;6.83;4.67;;;7.60;99.90;;;;;;5043936;28;20518;-77
2023/05/18 01:26:23;;;;;;;4.70;4.27;;;7.60;99.90;;;;;;5041980;28;20468;-80
2023/05/18 01:28:51;;;;;;;7.77;4.83;;;7.60;99.90;;;;;;5046482;28;20536;-82
2023/05/18 01:31:19;;;;;;;6.93;4.50;;;7.70;99.90;;;;;;5042878;28;20479;-77
2023/05/18 01:33:46;;;;;;;3.93;3.63;;;7.60;99.90;;;;;;5045636;28;20492;-78
2023/05/18 01:36:13;;;;;;;5.67;4.83;;;7.70;99.90;;;;;;5038689;28;20441;-76
2023/05/18 01:38:41;;;;;;;5.03;4.60;;;7.60;99.90;;;;;;5040129;28;21163;-80
2023/05/18 01:41:13;;;;;;;6.33;5.80;;;7.60;99.90;;;;;;5042079;28;20968;-77
2023/05/18 01:43:48;;;;;;;4.27;3.97;;;7.60;99.90;;;;;;5046017;28;20865;-77
2023/05/18 01:46:21;;;;;;;4.93;4.37;;;7.70;99.90;;;;;;5047805;28;20452;-78
2023/05/18 01:48:53;;;;;;;4.93;4.50;;;7.60;99.90;;;;;;5044709;28;20453;-79
2023/05/18 01:51:24;;;;;;;5.07;4.57;;;7.60;99.90;;;;;;5044983;28;20437;-80
2023/05/18 01:53:58;;;;;;;4.57;3.87;;;7.50;99.90;;;;;;5043896;28;20476;-79
2023/05/18 01:56:25;;;;;;;5.33;4.53;;;7.60;99.90;;;;;;5032506;28;20456;-78
2023/05/18 01:58:54;;;;;;;4.90;4.50;;;7.50;99.90;;;;;;5038850;28;20465;-78
2023/05/18 02:01:22;;;;;;;5.07;4.00;;;7.60;99.90;;;;;;5036532;28;20459;-78
2023/05/18 02:03:50;;;;;;;5.90;4.50;;;7.60;99.90;;;;;;5038341;28;20948;-77
2023/05/18 02:06:17;;;;;;;5.77;4.20;;;7.60;99.90;;;;;;5035988;28;20458;-78
2023/05/18 02:08:44;;;;;;;5.20;4.20;;;7.50;99.90;;;;;;5039507;28;20442;-79
2023/05/18 02:11:11;;;;;;;4.03;3.67;;;7.50;99.90;;;;;;5040743;28;20522;-80
2023/05/18 02:13:38;;;;;;;5.57;4.40;;;7.60;99.90;;;;;;5042027;28;20499;-78
2023/05/18 02:16:07;;;;;;;4.70;4.30;;;7.60;99.90;;;;;;5044831;28;20449;-77
2023/05/18 02:18:37;;;;;;;4.47;4.00;;;7.60;99.90;;;;;;5041631;28;20470;-79
2023/05/18 02:21:04;;;;;;;5.13;4.10;;;7.70;99.90;;;;;;5043256;28;20452;-78
2023/05/18 02:23:31;;;;;;;4.63;4.23;;;7.60;99.90;;;;;;5042682;28;20457;-77
2023/05/18 02:25:58;;;;;;;3.73;3.53;;;7.60;99.90;;;;;;5045331;28;20449;-79
2023/05/18 02:28:25;;;;;;;5.50;4.20;;;7.60;99.90;;;;;;5039294;28;20478;-78
2023/05/18 02:30:52;;;;;;;7.93;4.40;;;7.60;99.90;;;;;;5031667;28;20507;-77
2023/05/18 02:33:25;;;;;;;4.80;4.40;;;7.70;99.90;;;;;;5041030;28;20916;-82
2023/05/18 02:35:53;;;;;;;7.30;5.13;;;7.80;99.90;;;;;;5036035;28;20489;-80
2023/05/18 02:38:20;;;;;;;7.20;5.13;;;7.70;99.90;;;;;;5041457;28;20633;-78
2023/05/18 02:40:47;;;;;;;6.23;4.63;;;7.70;99.90;;;;;;5036295;28;20524;-82
2023/05/18 02:43:14;;;;;;;5.57;5.03;;;7.60;99.90;;;;;;5031796;28;20457;-79
2023/05/18 02:45:41;;;;;;;4.67;4.27;;;7.60;99.90;;;;;;5034777;28;20962;-80
2023/05/18 02:48:08;;;;;;;6.53;5.73;;;7.70;99.90;;;;;;5038226;28;20499;-78
2023/05/18 02:50:37;;;;;;;5.10;4.53;;;7.60;99.90;;;;;;5039932;28;20453;-79
2023/05/18 02:53:04;;;;;;;3.60;3.30;;;7.60;99.90;;;;;;5045787;28;20441;-78
2023/05/18 02:55:30;;;;;;;5.33;4.13;;;7.60;99.90;;;;;;5035907;28;20481;-82
2023/05/18 02:57:58;;;;;;;10.23;4.73;;;7.60;99.90;;;;;;5044159;28;20519;-80
2023/05/18 03:00:25;;;;;;;5.87;4.23;;;7.60;99.90;;;;;;5040876;28;20453;-76
2023/05/18 03:02:56;;;;;;;5.53;4.47;;;7.60;99.90;;;;;;5032576;28;21010;-81
2023/05/18 03:05:23;;;;;;;7.10;5.87;;;7.70;99.90;;;;;;5041225;28;20462;-79
2023/05/18 03:07:53;;;;;;;6.27;5.77;;;7.70;99.90;;;;;;5041896;28;20530;-78
2023/05/18 03:10:20;;;;;;;5.33;4.83;;;7.70;99.90;;;;;;5037077;28;20461;-77
2023/05/18 03:12:47;;;;;;;7.87;5.17;;;7.70;99.90;;;;;;5036446;28;20465;-79
2023/05/18 03:15:15;;;;;;;6.63;4.40;;;7.80;99.90;;;;;;5037832;28;20922;-80
2023/05/18 03:17:42;;;;;;;5.33;4.73;;;7.70;99.90;;;;;;5026643;28;20446;-73
2023/05/18 03:20:13;;;;;;;4.70;4.20;;;7.70;99.90;;;;;;5038700;28;20453;-74
2023/05/18 03:22:40;;;;;;;5.53;5.03;;;7.80;99.90;;;;;;5028890;28;20449;-74
2023/05/18 03:25:08;;;;;;;5.33;4.83;;;7.70;99.90;;;;;;5037684;28;20936;-73
2023/05/18 03:27:36;;;;;;;5.70;4.27;;;7.70;99.90;;;;;;5031254;28;20514;-75
2023/05/18 03:30:04;;;;;;;4.40;4.00;;;7.70;99.90;;;;;;5042097;28;20511;-74
2023/05/18 03:32:32;;;;;;;8.27;6.23;;;7.70;99.90;;;;;;5038459;28;20515;-76
2023/05/18 03:34:59;;;;;;;8.63;5.90;;;7.60;99.90;;;;;;5026529;28;20481;-77
2023/05/18 03:37:27;;;;;;;11.40;5.60;;;7.70;99.90;;;;;;5027306;28;20545;-76
2023/05/18 03:39:55;;;;;;;6.63;5.30;;;7.70;99.90;;;;;;5033060;28;20556;-76
2023/05/18 03:42:24;;;;;;;7.23;6.57;;;7.80;99.90;;;;;;5037261;28;20963;-74
2023/05/18 03:44:51;;;;;;;7.50;6.80;;;7.80;99.90;;;;;;5025476;28;20565;-74
2023/05/18 03:47:18;;;;;;;7.10;6.50;;;7.90;99.90;;;;;;5035150;28;20458;-77
2023/05/18 03:49:45;;;;;;;7.53;6.67;;;7.90;99.90;;;;;;5035117;28;20445;-74
2023/05/18 03:52:14;;;;;;;8.67;7.03;;;7.80;99.90;;;;;;5043223;28;20457;-74
2023/05/18 03:54:42;;;;;;;7.00;6.40;;;7.90;99.90;;;;;;5044406;28;20521;-74
2023/05/18 03:57:09;;;;;;;10.63;7.63;;;7.90;99.90;;;;;;5045220;28;20449;-74
2023/05/18 03:59:38;;;;;;;7.07;6.37;;;7.90;99.90;;;;;;5046704;28;20468;-74
2023/05/18 04:02:06;;;;;;;9.73;7.67;;;7.80;99.90;;;;;;5048233;28;20922;-73
2023/05/18 04:04:33;;;;;;;7.13;6.43;;;7.80;99.90;;;;;;5047798;28;20553;-74
2023/05/18 04:07:01;;;;;;;7.80;7.00;;;7.80;99.90;;;;;;5049396;28;21026;-73
2023/05/18 04:09:28;;;;;;;10.07;7.37;;;7.90;99.90;;;;;;5043219;28;20465;-78
2023/05/18 04:11:55;;;;;;;8.70;7.80;;;8.00;99.90;;;;;;5047166;28;20468;-75
2023/05/18 04:14:23;;;;;;;10.37;9.33;;;7.90;99.90;;;;;;5037282;28;20453;-76
2023/05/18 04:16:52;;;;;;;8.50;7.80;;;7.90;99.90;;;;;;5041024;28;20469;-76
2023/05/18 04:19:20;;;;;;;11.50;8.70;;;8.00;99.90;;;;;;5043313;28;20453;-76
2023/05/18 04:21:47;;;;;;;7.60;6.90;;;8.00;99.90;;;;;;5040948;28;20547;-76
2023/05/18 04:24:15;;;;;;;9.17;8.27;;;8.10;99.90;;;;;;5037556;28;20452;-76
2023/05/18 04:26:42;;;;;;;10.80;8.20;;;8.10;99.90;;;;;;5037727;28;20482;-76
2023/05/18 04:29:09;;;;;;;10.30;9.23;;;8.10;99.90;;;;;;5036195;28;20450;-76
2023/05/18 04:31:36;;;;;;;10.97;8.50;;;8.10;99.90;;;;;;5035590;28;20502;-76
2023/05/18 04:34:06;;;;;;;10.07;8.60;;;8.10;99.90;;;;;;5033706;28;20481;-76
2023/05/18 04:36:33;;;;;;;8.23;7.43;;;8.10;99.90;;;;;;5029559;28;20564;-76
2023/05/18 04:39:06;;;;;;;14.73;8.57;;;8.20;99.90;;;;;;5030040;28;21024;-76
2023/05/18 04:41:34;;;;;;;13.13;11.00;;;8.20;99.90;;;;;;5033022;28;20459;-76
2023/05/18 04:44:02;;;;;;;15.37;10.37;;;8.30;99.90;;;;;;5030491;28;20480;-76
2023/05/18 04:46:29;;;;;;;13.23;11.23;;;8.30;99.90;;;;;;5030702;28;20450;-76
2023/05/18 04:48:56;;;;;;;17.60;11.47;;;8.40;99.90;;;;;;5035463;28;20484;-76
2023/05/18 04:51:25;;;;;;;11.60;10.40;;;8.40;99.90;;;;;;5046301;28;20518;-76
2023/05/18 04:53:52;;;;;;;12.30;11.03;;;8.50;99.90;;;;;;5047648;28;20438;-76
2023/05/18 04:56:21;;;;;;;13.90;12.33;;;8.60;99.90;;;;;;5045878;28;20535;-76
2023/05/18 04:58:48;;;;;;;13.37;10.63;;;8.70;99.90;;;;;;5048274;28;20488;-76
2023/05/18 05:01:15;;;;;;;13.37;11.23;;;8.80;99.90;;;;;;5044645;28;20515;-76
2023/05/18 05:03:43;;;;;;;11.50;9.87;;;8.80;99.90;;;;;;5047201;28;20505;-76
2023/05/18 05:06:10;;;;;;;12.40;10.93;;;8.80;99.90;;;;;;5047096;28;20511;-76
2023/05/18 05:08:38;;;;;;;10.23;9.30;;;8.90;99.90;;;;;;5046266;28;20449;-76
2023/05/18 05:11:05;;;;;;;11.43;10.37;;;8.90;99.90;;;;;;5047709;28;20477;-76
2023/05/18 05:13:34;;;;;;;11.87;10.60;;;9.00;99.90;;;;;;5045336;28;20566;-76
2023/05/18 05:16:01;;;;;;;10.37;9.47;;;9.10;99.90;;;;;;5046182;28;21053;-76
2023/05/18 05:18:28;;;;;;;11.73;10.03;;;9.00;99.90;;;;;;5044971;28;20442;-76
2023/05/18 05:20:55;;;;;;;10.33;9.43;;;9.00;99.90;;;;;;5046046;28;20941;-76
2023/05/18 05:23:22;;;;;;;13.33;9.23;;;9.10;99.90;;;;;;5047991;28;20438;-76
2023/05/18 05:25:50;;;;;;;10.67;9.57;;;9.30;99.90;;;;;;5047570;28;20999;-76
2023/05/18 05:28:17;;;;;;;10.33;9.33;;;9.30;99.90;;;;;;5046514;28;21109;-76
2023/05/18 05:30:44;;;;;;;9.70;8.80;;;9.20;99.90;;;;;;5045432;28;20437;-76
2023/05/18 05:33:11;;;;;;;9.87;8.97;;;9.20;99.90;;;;;;5042858;28;20481;-76
2023/05/18 05:35:38;;;;;;;10.27;9.27;;;9.30;99.90;;;;;;5032746;28;20510;-76
2023/05/18 05:38:05;;;;;;;11.00;8.50;;;9.40;99.90;;;;;;5033522;28;21022;-76
2023/05/18 05:40:32;;;;;;;9.33;8.10;;;9.40;99.90;;;;;;5042257;28;20465;-76
2023/05/18 05:43:01;;;;;;;8.83;8.03;;;9.50;99.90;;;;;;5042720;28;20446;-76
2023/05/18 05:45:28;;;;;;;11.00;7.30;;;9.70;99.90;;;;;;5040583;28;20470;-76
2023/05/18 05:47:55;;;;;;;8.50;7.73;;;9.70;99.90;;;;;;5032710;28;20864;-76
2023/05/18 05:50:22;;;;;;;7.70;7.07;;;9.70;99.90;;;;;;5040450;28;20532;-76
2023/05/18 05:52:49;;;;;;;7.97;7.03;;;9.70;99.90;;;;;;5046444;28;20841;-76
2023/05/18 05:55:16;;;;;;;8.33;7.23;;;9.70;99.90;;;;;;5046483;28;20481;-76
2023/05/18 05:57:43;;;;;;;8.47;7.67;;;9.70;99.90;;;;;;5046419;28;20542;-76
2023/05/18 06:00:13;;;;;;;7.00;6.30;;;9.70;99.90;;;;;;5046051;28;20445;-76
2023/05/18 06:02:40;;;;;;;9.80;6.93;;;9.70;99.90;;;;;;5043082;28;20531;-76
2023/05/18 06:05:08;;;;;;;7.13;6.37;;;9.60;99.90;;;;;;5040574;28;20468;-76
2023/05/18 06:07:36;;;;;;;5.90;5.40;;;9.50;99.90;;;;;;5042730;28;20545;-76
2023/05/18 06:10:03;;;;;;;7.63;6.63;;;9.50;99.90;;;;;;5046996;28;20449;-76
2023/05/18 06:12:30;;;;;;;7.87;7.10;;;9.60;99.90;;;;;;5044685;28;21167;-76
2023/05/18 06:14:57;;;;;;;7.37;6.73;;;9.80;99.90;;;;;;5033970;28;20497;-76
2023/05/18 06:17:26;;;;;;;6.70;6.10;;;10.00;99.90;;;;;;5046472;28;20457;-76
2023/05/18 06:19:53;;;;;;;6.40;5.57;;;10.00;99.90;;;;;;5042745;28;20452;-76
2023/05/18 06:22:20;;;;;;;9.40;4.90;;;9.90;99.90;;;;;;5037941;28;20457;-76
2023/05/18 06:24:47;;;;;;;7.57;5.93;;;10.10;99.90;;;;;;5036227;28;20489;-76
2023/05/18 06:27:15;;;;;;;6.80;6.30;;;10.20;99.90;;;;;;5029841;28;20532;-76
2023/05/18 06:29:42;;;;;;;7.17;6.47;;;10.10;99.90;;;;;;5042422;28;20469;-76
2023/05/18 06:32:09;;;;;;;8.73;7.70;;;10.20;99.90;;;;;;5037437;28;20470;-76
2023/05/18 06:34:38;;;;;;;10.97;9.97;;;10.20;99.90;;;;;;5036950;28;20500;-76
2023/05/18 06:37:05;;;;;;;7.87;7.07;;;10.20;99.90;;;;;;5040935;28;20474;-76
2023/05/18 06:39:32;;;;;;;7.47;6.77;;;10.20;99.90;;;;;;5036168;28;20521;-76
2023/05/18 06:41:59;;;;;;;7.07;6.37;;;10.20;99.90;;;;;;5039932;28;20449;-76
2023/05/18 06:44:26;;;;;;;7.07;6.37;;;10.10;99.90;;;;;;5041540;28;20520;-76
2023/05/18 06:46:53;;;;;;;7.77;6.20;;;10.10;99.90;;;;;;5037735;28;20497;-76
2023/05/18 06:49:20;;;;;;;9.23;6.67;;;10.20;99.90;;;;;;5035300;28;20908;-76
2023/05/18 06:51:48;;;;;;;11.30;6.33;;;10.40;99.90;;;;;;5042421;28;20583;-76
2023/05/18 06:54:16;;;;;;;6.23;5.20;;;10.50;99.90;;;;;;5041576;28;20977;-76
2023/05/18 06:56:43;;;;;;;6.37;5.63;;;10.60;99.90;;;;;;5044356;28;20582;-76
2023/05/18 06:59:09;;;;;;;5.13;4.00;;;10.70;99.90;;;;;;5043116;28;20597;-76
2023/05/18 07:01:36;;;;;;;5.90;4.33;;;10.90;99.90;;;;;;5038450;28;20937;-76
2023/05/18 07:04:04;;;;;;;8.90;5.90;;;10.90;99.90;;;;;;5045742;28;20457;-76
2023/05/18 07:06:31;;;;;;;8.80;5.80;;;11.10;99.90;;;;;;5043418;28;20538;-76
2023/05/18 07:08:59;;;;;;;8.90;5.83;;;11.20;99.90;;;;;;5040212;28;20489;-76
2023/05/18 07:11:26;;;;;;;5.60;5.10;;;11.10;99.90;;;;;;5041924;28;20449;-76
2023/05/18 07:13:53;;;;;;;10.87;6.53;;;11.20;99.90;;;;;;5045182;28;20524;-76
2023/05/18 07:16:20;;;;;;;8.00;6.27;;;10.90;99.90;;;;;;5042117;28;21046;-76
2023/05/18 07:18:47;;;;;;;10.33;7.83;;;10.50;99.90;;;;;;5034649;28;20477;-76
2023/05/18 07:21:14;;;;;;;5.33;4.83;;;10.50;99.90;;;;;;5042826;28;20551;-76
2023/05/18 07:23:41;;;;;;;7.40;5.50;;;10.50;99.90;;;;;;5040136;28;20848;-76
2023/05/18 07:26:10;;;;;;;5.27;4.70;;;10.40;99.90;;;;;;5035056;28;20518;-76
2023/05/18 07:28:38;;;;;;;5.03;4.53;;;10.20;99.90;;;;;;5035679;28;21515;-77
2023/05/18 07:31:05;;;;;;;7.07;4.43;;;10.30;99.90;;;;;;5044792;28;20485;-76
2023/05/18 07:33:32;;;;;;;10.53;6.40;;;10.40;99.90;;;;;;5037351;28;20461;-76
2023/05/18 07:35:59;;;;;;;5.50;4.90;;;10.50;99.90;;;;;;5051037;28;20482;-76
2023/05/18 07:38:26;;;;;;;10.23;6.00;;;10.50;99.90;;;;;;5045288;28;20465;-76
2023/05/18 07:40:53;;;;;;;10.40;6.83;;;10.10;99.90;;;;;;5040606;28;20467;-76
2023/05/18 07:43:22;;;;;;;5.37;4.87;;;9.60;99.90;;;;;;5046518;28;20572;-76
2023/05/18 07:45:49;;;;;;;7.60;6.60;;;9.50;99.90;;;;;;5044291;28;20497;-76
2023/05/18 07:48:15;;;;;;;10.33;6.77;;;9.60;99.90;;;;;;5048845;28;20909;-76
2023/05/18 07:50:42;;;;;;;8.10;7.40;;;9.50;99.90;;;;;;5043181;28;20469;-76
2023/05/18 07:53:09;;;;;;;13.20;8.30;;;9.50;99.90;;;;;;5048377;28;20461;-76
2023/05/18 07:55:36;;;;;;;18.00;10.20;;;9.30;99.90;;;;;;5048094;28;20464;-76
2023/05/18 07:58:03;;;;;;;13.30;9.00;;;9.40;99.90;;;;;;5041155;28;20539;-76
2023/05/18 08:00:32;;;;;;;20.47;14.20;;;9.30;99.90;;;;;;5047369;28;20469;-76
2023/05/18 08:02:59;;;;;;;23.40;12.03;;;9.40;99.90;;;;;;5056301;28;20501;-76
2023/05/18 08:05:26;;;;;;;19.57;13.20;;;9.40;99.90;;;;;;5049447;28;20480;-76
2023/05/18 08:07:53;;;;;;;18.00;12.27;;;9.40;99.90;;;;;;5048670;28;20445;-76
2023/05/18 08:10:20;;;;;;;16.00;12.07;;;9.40;99.90;;;;;;5039929;28;20454;-76
2023/05/18 08:12:47;;;;;;;11.17;7.37;;;9.50;99.90;;;;;;5036184;28;20523;-76
2023/05/18 08:15:14;;;;;;;10.03;8.20;;;9.50;99.90;;;;;;5040390;28;20940;-76
2023/05/18 08:17:42;;;;;;;13.27;9.30;;;9.50;99.90;;;;;;5044905;28;20484;-76
2023/05/18 08:20:10;;;;;;;6.70;6.00;;;9.50;99.90;;;;;;5041670;28;20543;-76
2023/05/18 08:22:37;;;;;;;7.10;6.47;;;9.60;99.90;;;;;;5045395;28;20456;-76
2023/05/18 08:25:05;;;;;;;6.30;5.70;;;9.60;99.90;;;;;;5040774;28;20567;-76
2023/05/18 08:27:32;;;;;;;10.63;6.90;;;9.60;99.90;;;;;;5040373;28;21114;-76
2023/05/18 08:29:59;;;;;;;8.83;5.80;;;9.40;99.90;;;;;;5041899;28;20484;-76
2023/05/18 08:32:26;;;;;;;9.33;7.17;;;9.20;99.90;;;;;;5052656;28;20557;-76
2023/05/18 08:34:54;;;;;;;7.33;4.70;;;9.10;99.90;;;;;;5041688;28;20507;-76
2023/05/18 08:37:27;;;;;;;6.70;4.50;;;9.20;99.90;;;;;;5048442;28;20512;-76
2023/05/18 08:39:54;;;;;;;7.60;4.93;;;9.20;99.90;;;;;;5050955;28;20469;-76
2023/05/18 08:42:23;;;;;;;9.60;5.93;;;9.20;99.90;;;;;;5042772;28;20456;-76
2023/05/18 08:44:58;;;;;;;12.40;3.73;;;9.40;99.90;;;;;;5042760;28;21194;-76
2023/05/18 08:47:25;;;;;;;5.27;4.53;;;9.40;99.90;;;;;;5040542;28;20454;-76
2023/05/18 08:49:56;;;;;;;6.27;4.50;;;9.40;99.90;;;;;;5039248;28;20552;-76
2023/05/18 08:52:26;;;;;;;8.80;4.53;;;9.40;99.90;;;;;;5054433;28;20460;-76
2023/05/18 08:54:55;;;;;;;4.80;4.30;;;9.50;99.90;;;;;;5052325;28;20940;-76
2023/05/18 08:57:23;;;;;;;4.90;4.37;;;9.60;99.90;;;;;;5049249;28;20591;-76
2023/05/18 08:59:53;;;;;;;4.67;4.23;;;9.80;99.90;;;;;;5042318;28;21533;-76
2023/05/18 09:02:20;;;;;;;5.63;4.50;;;10.20;99.90;;;;;;5045558;28;20484;-76
2023/05/18 09:04:48;;;;;;;6.23;3.20;;;10.50;99.90;;;;;;5040589;28;20542;-76
2023/05/18 09:07:17;;;;;;;7.70;5.47;;;10.30;99.90;;;;;;5042995;28;20565;-76
2023/05/18 09:09:47;;;;;;;4.93;4.53;;;10.60;99.90;;;;;;5037445;28;20536;-76
2023/05/18 09:12:16;;;;;;;6.70;3.87;;;10.80;99.90;;;;;;5044925;28;20899;-76
2023/05/18 09:14:43;;;;;;;5.40;4.27;;;10.90;99.90;;;;;;5044159;28;20502;-76
2023/05/18 09:17:10;;;;;;;4.30;3.90;;;11.20;99.90;;;;;;5030109;28;20594;-77
2023/05/18 09:19:37;;;;;;;4.57;3.30;;;11.50;99.90;;;;;;5043251;28;20495;-76
2023/05/18 09:22:04;;;;;;;5.67;4.10;;;11.50;99.90;;;;;;5037558;28;20519;-76
2023/05/18 09:24:33;;;;;;;5.70;4.10;;;11.20;99.90;;;;;;5044002;28;20461;-75
2023/05/18 09:27:00;;;;;;;7.33;4.13;;;11.40;99.90;;;;;;5043652;28;20514;-76
2023/05/18 09:29:27;;;;;;;8.50;5.30;;;11.50;99.90;;;;;;5037293;28;20454;-76
2023/05/18 09:31:54;;;;;;;5.37;4.50;;;11.80;99.90;;;;;;5044666;28;20547;-76
2023/05/18 09:34:23;;;;;;;6.23;4.43;;;11.60;99.90;;;;;;5040977;28;20874;-76
2023/05/18 09:36:51;;;;;;;5.00;4.50;;;11.40;99.90;;;;;;5039819;28;20528;-76
2023/05/18 09:39:19;;;;;;;8.20;4.90;;;11.50;99.90;;;;;;5041772;28;20461;-76
2023/05/18 09:41:54;;;;;;;4.70;4.30;;;11.10;99.90;;;;;;5044851;28;20515;-76
2023/05/18 09:44:30;;;;;;;7.30;5.23;;;11.10;99.90;;;;;;5034451;28;21026;-76
2023/05/18 09:46:57;;;;;;;6.27;5.07;;;11.00;99.90;;;;;;5039949;28;20513;-76
2023/05/18 09:49:24;;;;;;;10.40;5.93;;;10.90;99.90;;;;;;5042218;28;20458;-76
2023/05/18 09:51:53;;;;;;;5.97;4.97;;;10.90;99.90;;;;;;5046243;28;20461;-76
2023/05/18 09:54:20;;;;;;;7.00;5.30;;;10.90;99.90;;;;;;5049063;28;20988;-76
2023/05/18 09:56:49;;;;;;;7.30;4.73;;;10.90;99.90;;;;;;5045685;28;20967;-76
2023/05/18 09:59:16;;;;;;;5.03;4.60;;;11.00;99.90;;;;;;5045261;28;20519;-76
2023/05/18 10:01:56;;;;;;;9.37;6.57;;;10.90;99.90;;;;;;5044470;28;20472;-76
2023/05/18 10:04:23;;;;;;;8.63;5.03;;;10.70;99.90;;;;;;5041299;28;20453;-76
2023/05/18 10:06:51;;;;;;;7.13;5.23;;;10.80;99.90;;;;;;5046973;28;20473;-76
2023/05/18 10:09:18;;;;;;;4.57;4.00;;;10.60;99.90;;;;;;5047474;28;20548;-76
2023/05/18 10:11:45;;;;;;;7.30;4.07;;;10.50;99.90;;;;;;5051641;28;20477;-76
2023/05/18 10:14:13;;;;;;;3.63;3.23;;;10.70;99.90;;;;;;5046393;28;21158;-76
2023/05/18 10:16:41;;;;;;;6.83;3.90;;;11.00;99.90;;;;;;5046113;28;20477;-76
2023/05/18 10:19:10;;;;;;;5.60;4.70;;;11.00;99.90;;;;;;5042887;28;20554;-76
2023/05/18 10:21:40;;;;;;;3.17;1.70;;;11.20;99.90;;;;;;5039956;28;21308;-76
2023/05/18 10:24:11;;;;;;;4.70;2.63;;;11.30;99.90;;;;;;5047339;28;20523;-76
2023/05/18 10:26:40;;;;;;;1.70;1.60;;;11.40;99.90;;;;;;5043925;28;20500;-76
2023/05/18 10:29:08;;;;;;;5.67;2.50;;;11.30;99.90;;;;;;5042498;28;20587;-76
2023/05/18 10:31:38;;;;;;;4.43;2.20;;;11.10;99.90;;;;;;5057296;28;20448;-76
2023/05/18 10:34:07;;;;;;;2.77;1.63;;;11.00;99.90;;;;;;5048569;28;20501;-76
2023/05/18 10:36:36;;;;;;;3.17;1.90;;;11.10;99.90;;;;;;5046044;28;20573;-76
2023/05/18 10:39:05;;;;;;;3.57;2.27;;;11.20;99.90;;;;;;5046616;28;20438;-76
2023/05/18 10:41:34;;;;;;;4.97;2.67;;;11.00;99.90;;;;;;5044720;28;20488;-76
2023/05/18 10:44:02;;;;;;;2.00;1.77;;;11.10;99.90;;;;;;5045994;28;20842;-76
2023/05/18 10:46:30;;;;;;;3.20;2.07;;;11.10;99.90;;;;;;5045176;28;20518;-76
2023/05/18 10:49:01;;;;;;;2.50;1.77;;;11.10;99.90;;;;;;5044160;28;20816;-76
2023/05/18 10:51:30;;;;;;;3.43;2.20;;;11.10;99.90;;;;;;5042386;28;21166;-76
2023/05/18 10:54:11;;;;;;;2.80;1.83;;;11.40;99.90;;;;;;5047054;28;20445;-76
2023/05/18 10:56:40;;;;;;;2.00;1.50;;;11.20;99.90;;;;;;5044892;28;20460;-76
2023/05/18 10:59:08;;;;;;;4.77;1.90;;;11.20;99.90;;;;;;5045136;28;20489;-76
2023/05/18 11:01:36;;;;;;;3.93;1.80;;;11.10;99.90;;;;;;5043406;28;20454;-76
2023/05/18 11:04:05;;;;;;;2.90;1.57;;;10.90;99.90;;;;;;5038919;28;20442;-76
2023/05/18 11:06:34;;;;;;;4.83;1.93;;;11.00;99.90;;;;;;5037021;28;20486;-76
2023/05/18 11:09:02;;;;;;;5.33;2.53;;;11.10;99.90;;;;;;5041458;28;20467;-76
2023/05/18 11:11:29;;;;;;;4.73;2.57;;;11.10;99.90;;;;;;5047070;28;20454;-76
2023/05/18 11:14:01;;;;;;;4.53;1.90;;;11.10;99.90;;;;;;5034210;28;20520;-76
2023/05/18 11:16:34;;;;;;;2.53;1.80;;;11.20;99.90;;;;;;5038714;28;20977;-76
2023/05/18 11:19:08;;;;;;;8.47;1.50;;;11.30;99.90;;;;;;5044801;28;20479;-76
2023/05/18 11:21:53;;;;;;;3.90;1.27;;;11.10;99.90;;;;;;5043656;28;20468;-76
2023/05/18 11:24:25;;;;;;;3.03;1.30;;;11.20;99.90;;;;;;5044340;28;20810;-76
2023/05/18 11:26:54;;;;;;;2.37;1.93;;;11.40;99.90;;;;;;5056842;28;20974;-76
2023/05/18 11:29:23;;;;;;;4.40;1.20;;;11.40;99.90;;;;;;5050392;28;20491;-76
2023/05/18 11:31:52;;;;;;;2.67;1.40;;;11.20;99.90;;;;;;5032288;28;20474;-76
2023/05/18 11:34:51;;;;;;;2.10;1.10;;;11.10;99.90;;;;;;5044326;28;21271;-76
2023/05/18 11:37:48;;;;;;;3.07;1.57;;;11.00;99.90;;;;;;5016520;28;20486;-76
2023/05/18 11:40:45;;;;;;;2.10;1.10;;;11.20;99.90;;;;;;5038721;28;20531;-76
2023/05/18 11:43:19;;;;;;;4.10;1.23;;;11.50;99.90;;;;;;5041116;28;21198;-76
2023/05/18 11:45:53;;;;;;;5.90;1.87;;;11.70;99.90;;;;;;5041363;28;20548;-77
2023/05/18 11:48:21;;;;;;;2.80;1.73;;;11.90;99.90;;;;;;5039973;28;20472;-76
2023/05/18 11:50:52;;;;;;;3.07;1.63;;;11.90;99.90;;;;;;5040650;28;20883;-77
2023/05/18 11:53:22;;;;;;;2.73;1.10;;;11.90;99.90;;;;;;5047411;28;20492;-76
2023/05/18 11:55:53;;;;;;;1.00;0.90;;;12.00;99.90;;;;;;5054865;28;20551;-76
2023/05/18 11:58:20;;;;;;;3.87;1.90;;;12.10;99.90;;;;;;5051153;28;20484;-76
2023/05/18 12:00:48;;;;;;;2.60;2.10;;;12.00;99.90;;;;;;5045696;28;21331;-76
2023/05/18 12:03:16;;;;;;;2.90;1.77;;;11.90;99.90;;;;;;5045479;28;21006;-76
2023/05/18 12:05:47;;;;;;;2.40;1.30;;;12.00;99.90;;;;;;5056380;28;20460;-76
2023/05/18 12:08:18;;;;;;;3.20;1.57;;;12.00;99.90;;;;;;5046179;28;20468;-76
2023/05/18 12:10:46;;;;;;;4.87;0.93;;;12.40;99.90;;;;;;5047597;28;21099;-76
2023/05/18 12:13:13;;;;;;;2.17;1.00;;;12.40;99.90;;;;;;5054801;28;20563;-76
2023/05/18 12:15:41;;;;;;;1.10;1.00;;;12.40;99.90;;;;;;5047318;28;20614;-76
2023/05/18 12:18:08;;;;;;;4.73;1.87;;;12.70;99.90;;;;;;5047115;28;20516;-76
2023/05/18 12:20:38;;;;;;;2.33;1.10;;;12.70;99.90;;;;;;5047675;28;20866;-77
2023/05/18 12:23:05;;;;;;;1.53;1.00;;;13.00;99.90;;;;;;5047884;28;21012;-77
2023/05/18 12:25:34;;;;;;;1.87;1.13;;;13.10;99.90;;;;;;5055363;28;20863;-76
2023/05/18 12:28:03;;;;;;;3.27;0.90;;;13.10;99.90;;;;;;5046375;28;20501;-76
2023/05/18 12:30:34;;;;;;;1.90;1.80;;;12.80;99.90;;;;;;5049770;28;20548;-76
2023/05/18 12:33:02;;;;;;;1.50;0.70;;;12.90;99.90;;;;;;5044254;28;20469;-76
2023/05/18 12:35:29;;;;;;;1.97;0.80;;;13.00;99.90;;;;;;5046199;28;20811;-76
2023/05/18 12:37:59;;;;;;;1.83;1.73;;;13.30;99.90;;;;;;5047805;28;20517;-76
2023/05/18 12:40:27;;;;;;;1.60;0.90;;;13.40;99.90;;;;;;5048341;28;20465;-76
2023/05/18 12:42:58;;;;;;;0.70;0.63;;;13.30;99.90;;;;;;5047129;28;20465;-77
2023/05/18 12:45:27;;;;;;;1.00;0.60;;;13.20;99.90;;;;;;5048520;28;20922;-77
2023/05/18 12:47:54;;;;;;;2.10;0.80;;;13.10;99.90;;;;;;5040109;28;20519;-77
2023/05/18 12:50:22;;;;;;;2.30;0.70;;;13.00;99.90;;;;;;5031720;28;20834;-77
2023/05/18 12:52:49;;;;;;;0.80;0.80;;;12.70;99.90;;;;;;5043285;28;20478;-77
2023/05/18 12:55:20;;;;;;;2.03;1.10;;;12.80;99.90;;;;;;5035875;28;20929;-76
2023/05/18 12:58:00;;;;;;;1.33;1.20;;;12.60;99.90;;;;;;5039865;28;20484;-77